Time;durP1;ratioP1;P1;durP2;ratioP2;P2;SDS_P1;SDS_P2;PMS_P1;PMS_P2;Temp;Humidity;BMP_temperature;BMP_pressure;BME280_temperature;BME280_humidity;BME280_pressure;Samples;Min_cycle;Max_cycle;Signal;HPM_P1;HPM_P2
2020/12/26 00:01:17;;;;;;;4.50;3.67;;;-0.90;97.40;;;;;;5064041;28;20438;-58
2020/12/26 00:03:43;;;;;;;9.60;4.00;;;-0.90;97.30;;;;;;5064799;28;20545;-58
2020/12/26 00:06:16;;;;;;;3.87;3.47;;;-0.90;97.50;;;;;;5064573;28;20544;-57
2020/12/26 00:08:42;;;;;;;4.87;3.50;;;-0.90;97.60;;;;;;5061748;28;20438;-58
2020/12/26 00:11:10;;;;;;;5.20;3.87;;;-1.00;97.50;;;;;;5058596;28;20434;-58
2020/12/26 00:13:36;;;;;;;4.07;3.63;;;-1.00;97.50;;;;;;5063742;28;20463;-58
2020/12/26 00:16:06;;;;;;;11.63;3.60;;;-1.00;97.60;;;;;;5065192;28;20505;-57
2020/12/26 00:18:32;;;;;;;5.40;3.77;;;-1.10;97.80;;;;;;5063124;28;20973;-58
2020/12/26 00:20:59;;;;;;;7.50;3.70;;;-1.10;98.00;;;;;;5063927;28;20442;-58
2020/12/26 00:23:25;;;;;;;5.10;4.03;;;-1.10;98.10;;;;;;5063277;28;20459;-59
2020/12/26 00:25:51;;;;;;;4.80;3.70;;;-1.10;98.10;;;;;;5062334;28;20436;-58
2020/12/26 00:28:17;;;;;;;6.23;4.10;;;-1.10;98.10;;;;;;5062772;28;20225;-58
2020/12/26 00:30:43;;;;;;;8.57;4.37;;;-1.10;98.10;;;;;;5069003;28;20421;-59
2020/12/26 00:33:09;;;;;;;5.37;3.60;;;-1.10;98.10;;;;;;5065590;28;20437;-58
2020/12/26 00:35:34;;;;;;;8.50;3.63;;;-1.10;98.20;;;;;;5048147;28;22374;-58
2020/12/26 00:38:00;;;;;;;6.47;3.40;;;-1.10;98.30;;;;;;5067941;28;20690;-56
2020/12/26 00:40:26;;;;;;;4.97;3.70;;;-1.10;98.30;;;;;;5067785;28;20229;-58
2020/12/26 00:42:52;;;;;;;5.97;3.70;;;-1.00;98.40;;;;;;5046827;28;20208;-57
2020/12/26 00:45:17;;;;;;;5.87;3.67;;;-1.00;98.40;;;;;;5063501;28;20301;-58
2020/12/26 00:47:44;;;;;;;4.00;3.27;;;-1.00;98.40;;;;;;5068785;28;20476;-58
2020/12/26 00:50:09;;;;;;;7.67;4.03;;;-1.00;98.40;;;;;;5068079;28;20883;-58
2020/12/26 00:52:35;;;;;;;6.13;3.50;;;-1.00;98.40;;;;;;5046418;28;20190;-59
2020/12/26 00:55:01;;;;;;;5.67;3.70;;;-1.00;98.40;;;;;;5065210;28;20435;-59
2020/12/26 00:57:27;;;;;;;5.40;4.10;;;-1.00;98.30;;;;;;5053052;28;20558;-58
2020/12/26 00:59:52;;;;;;;5.60;3.93;;;-1.00;98.50;;;;;;5046312;28;20529;-58
2020/12/26 01:02:18;;;;;;;5.63;3.70;;;-1.00;98.40;;;;;;5065701;28;20264;-58
2020/12/26 01:04:44;;;;;;;6.20;3.80;;;-1.00;98.40;;;;;;5068270;28;20652;-57
2020/12/26 01:07:10;;;;;;;5.80;4.50;;;-1.10;98.10;;;;;;5059167;28;20794;-58
2020/12/26 01:09:35;;;;;;;10.30;4.00;;;-1.10;98.20;;;;;;5047509;28;20195;-58
2020/12/26 01:12:01;;;;;;;6.43;3.67;;;-1.10;98.20;;;;;;5063883;28;20249;-58
2020/12/26 01:14:26;;;;;;;5.30;3.47;;;-1.20;98.20;;;;;;5048735;28;20191;-58
2020/12/26 01:16:52;;;;;;;5.37;3.90;;;-1.20;98.20;;;;;;5067048;28;20209;-58
2020/12/26 01:19:18;;;;;;;6.07;3.67;;;-1.30;98.20;;;;;;5067563;28;20311;-58
2020/12/26 01:21:51;;;;;;;5.17;3.33;;;-1.30;98.20;;;;;;5062687;28;20201;-59
2020/12/26 01:24:18;;;;;;;5.83;3.53;;;-1.30;98.30;;;;;;5060011;28;20462;-58
2020/12/26 01:26:50;;;;;;;4.20;3.07;;;-1.40;98.30;;;;;;5066038;28;20465;-58
2020/12/26 01:29:17;;;;;;;5.20;2.90;;;-1.40;98.60;;;;;;5061247;28;20429;-58
2020/12/26 01:31:48;;;;;;;6.57;3.60;;;-1.40;98.50;;;;;;5066247;28;20483;-58
2020/12/26 01:34:14;;;;;;;4.97;3.40;;;-1.50;98.60;;;;;;5052619;28;20470;-58
2020/12/26 01:36:40;;;;;;;7.20;3.57;;;-1.50;98.70;;;;;;5066346;28;20488;-60
2020/12/26 01:39:06;;;;;;;4.80;3.30;;;-1.50;98.60;;;;;;5067385;28;20523;-59
2020/12/26 01:41:32;;;;;;;4.13;3.00;;;-1.50;98.50;;;;;;5044486;28;20542;-59
2020/12/26 01:43:59;;;;;;;6.33;3.30;;;-1.50;98.50;;;;;;5048265;28;20213;-58
2020/12/26 01:46:30;;;;;;;5.57;3.00;;;-1.60;98.40;;;;;;5053829;28;20632;-59
2020/12/26 01:48:57;;;;;;;9.63;4.60;;;-1.60;98.60;;;;;;5072118;28;20954;-58
2020/12/26 01:51:30;;;;;;;6.60;3.67;;;-1.60;98.60;;;;;;5069912;28;20734;-58
2020/12/26 01:53:57;;;;;;;7.50;3.97;;;-1.60;98.50;;;;;;5072654;28;20428;-59
2020/12/26 01:56:24;;;;;;;6.60;3.73;;;-1.60;98.60;;;;;;5073624;28;20867;-58
2020/12/26 01:58:50;;;;;;;5.43;3.20;;;-1.60;98.60;;;;;;5072315;28;20851;-58
2020/12/26 02:01:15;;;;;;;8.07;3.93;;;-1.60;98.60;;;;;;5073281;28;20524;-58
2020/12/26 02:03:41;;;;;;;7.60;3.73;;;-1.60;98.60;;;;;;5072411;28;20208;-58
2020/12/26 02:06:08;;;;;;;5.97;3.30;;;-1.60;98.70;;;;;;5072120;28;20208;-58
2020/12/26 02:08:37;;;;;;;5.30;3.50;;;-1.60;98.70;;;;;;5061574;28;20237;-59
2020/12/26 02:11:06;;;;;;;6.40;3.67;;;-1.60;98.70;;;;;;5068058;28;20439;-59
2020/12/26 02:13:32;;;;;;;6.03;4.03;;;-1.60;98.70;;;;;;5054892;28;20434;-58
2020/12/26 02:16:03;;;;;;;6.03;3.20;;;-1.60;98.70;;;;;;5052900;28;20444;-56
2020/12/26 02:18:28;;;;;;;4.37;2.77;;;-1.60;98.60;;;;;;5075793;28;20441;-56
2020/12/26 02:20:54;;;;;;;4.80;3.20;;;-1.60;98.80;;;;;;5074742;28;20435;-57
2020/12/26 02:23:21;;;;;;;6.83;3.90;;;-1.60;98.40;;;;;;5073794;28;21153;-56
2020/12/26 02:25:47;;;;;;;3.70;2.90;;;-1.60;98.40;;;;;;5073636;28;20824;-56
2020/12/26 02:28:12;;;;;;;13.60;3.90;;;-1.60;98.40;;;;;;5075226;28;20430;-58
2020/12/26 02:30:39;;;;;;;5.37;3.50;;;-1.70;98.40;;;;;;5072312;28;20194;-59
2020/12/26 02:33:04;;;;;;;6.00;3.13;;;-1.70;98.50;;;;;;5073734;28;20175;-56
2020/12/26 02:35:30;;;;;;;4.50;3.23;;;-1.70;98.50;;;;;;5058403;28;20533;-57
2020/12/26 02:37:56;;;;;;;6.97;2.90;;;-1.70;98.40;;;;;;5074158;28;20229;-57
2020/12/26 02:40:21;;;;;;;5.30;3.23;;;-1.70;98.40;;;;;;5071063;28;20226;-56
2020/12/26 02:42:47;;;;;;;9.00;3.90;;;-1.70;98.40;;;;;;5067707;28;20210;-56
2020/12/26 02:45:12;;;;;;;6.00;3.40;;;-1.70;98.50;;;;;;5088096;28;20171;-58
2020/12/26 02:47:38;;;;;;;7.03;3.60;;;-1.70;98.60;;;;;;5096311;28;20228;-58
2020/12/26 02:50:04;;;;;;;5.27;3.80;;;-1.70;98.70;;;;;;5093161;28;20192;-58
2020/12/26 02:52:29;;;;;;;4.47;3.40;;;-1.70;98.80;;;;;;5090517;28;20171;-59
2020/12/26 02:54:55;;;;;;;8.63;3.60;;;-1.70;98.80;;;;;;5078542;28;20542;-57
2020/12/26 02:57:21;;;;;;;3.40;3.10;;;-1.70;98.90;;;;;;5094733;28;20265;-58
2020/12/26 02:59:47;;;;;;;6.03;3.73;;;-1.70;98.90;;;;;;5095623;28;20440;-55
2020/12/26 03:02:12;;;;;;;6.00;3.80;;;-1.70;99.00;;;;;;5092037;28;20192;-58
2020/12/26 03:04:38;;;;;;;7.80;3.90;;;-1.70;99.00;;;;;;5095786;28;20196;-65
2020/12/26 03:07:04;;;;;;;5.13;3.80;;;-1.70;99.00;;;;;;5074834;28;20199;-58
2020/12/26 03:09:29;;;;;;;6.00;3.90;;;-1.70;99.10;;;;;;5094165;28;20194;-58
2020/12/26 03:11:55;;;;;;;6.77;3.83;;;-1.70;99.10;;;;;;5087958;28;20713;-57
2020/12/26 03:14:20;;;;;;;8.73;4.30;;;-1.70;99.20;;;;;;5068763;28;20179;-57
2020/12/26 03:16:46;;;;;;;5.83;3.67;;;-1.70;98.90;;;;;;5070945;28;20230;-57
2020/12/26 03:19:12;;;;;;;6.73;3.87;;;-1.70;98.80;;;;;;5067412;28;20426;-57
2020/12/26 03:21:38;;;;;;;5.40;3.60;;;-1.70;98.90;;;;;;5072304;28;20183;-56
2020/12/26 03:24:04;;;;;;;6.30;3.43;;;-1.80;98.90;;;;;;5064651;28;20361;-58
2020/12/26 03:26:30;;;;;;;7.60;4.00;;;-1.80;98.90;;;;;;5063019;28;20461;-57
2020/12/26 03:28:55;;;;;;;5.63;4.33;;;-1.80;98.80;;;;;;5053302;28;20442;-57
2020/12/26 03:31:21;;;;;;;5.30;4.00;;;-1.80;99.00;;;;;;5066493;28;20184;-57
2020/12/26 03:33:47;;;;;;;5.53;3.67;;;-1.90;98.90;;;;;;5067398;28;20190;-57
2020/12/26 03:36:13;;;;;;;8.40;4.60;;;-1.90;98.70;;;;;;5063215;28;20211;-58
2020/12/26 03:38:38;;;;;;;7.53;4.60;;;-2.00;98.60;;;;;;5095231;28;20191;-58
2020/12/26 03:41:04;;;;;;;8.63;4.80;;;-2.00;99.00;;;;;;5062136;28;20562;-56
2020/12/26 03:43:30;;;;;;;7.77;4.47;;;-2.00;99.20;;;;;;5071342;28;20222;-57
2020/12/26 03:45:56;;;;;;;8.50;5.03;;;-2.10;99.10;;;;;;5067386;28;20513;-57
2020/12/26 03:48:22;;;;;;;6.77;4.50;;;-2.10;99.30;;;;;;5067967;28;20520;-57
2020/12/26 03:50:49;;;;;;;10.80;5.27;;;-2.10;99.30;;;;;;5070647;28;20175;-58
2020/12/26 03:53:14;;;;;;;8.13;4.93;;;-2.10;99.40;;;;;;5069381;28;20181;-57
2020/12/26 03:55:40;;;;;;;9.23;5.27;;;-2.10;99.40;;;;;;5052107;28;20450;-57
2020/12/26 03:58:06;;;;;;;8.63;5.57;;;-2.10;99.50;;;;;;5072065;28;20245;-57
2020/12/26 04:00:32;;;;;;;11.80;5.30;;;-2.10;99.60;;;;;;5068646;28;20203;-58
2020/12/26 04:02:58;;;;;;;5.53;3.90;;;-2.10;99.70;;;;;;5069518;28;20460;-58
2020/12/26 04:05:23;;;;;;;5.87;4.30;;;-2.00;99.70;;;;;;5070431;28;20206;-57
2020/12/26 04:07:49;;;;;;;7.70;5.03;;;-2.00;99.70;;;;;;5076202;28;20224;-56
2020/12/26 04:10:15;;;;;;;7.40;4.40;;;-2.00;99.70;;;;;;5054557;28;20255;-57
2020/12/26 04:12:40;;;;;;;7.27;4.07;;;-1.90;99.80;;;;;;5091058;28;20192;-57
2020/12/26 04:15:06;;;;;;;8.63;4.70;;;-1.90;99.80;;;;;;5095047;28;20176;-58
2020/12/26 04:17:35;;;;;;;9.23;4.80;;;-1.80;99.80;;;;;;5091969;28;20203;-58
2020/12/26 04:20:01;;;;;;;9.77;5.60;;;-1.80;99.80;;;;;;5072469;28;20195;-58
2020/12/26 04:22:27;;;;;;;7.30;4.93;;;-1.80;99.70;;;;;;5073586;28;20514;-57
2020/12/26 04:24:52;;;;;;;8.00;4.33;;;-1.70;99.70;;;;;;5073470;28;20183;-57
2020/12/26 04:27:18;;;;;;;7.80;4.47;;;-1.70;99.60;;;;;;5066598;28;20219;-57
2020/12/26 04:29:43;;;;;;;7.30;4.73;;;-1.70;99.40;;;;;;5056104;28;20238;-58
2020/12/26 04:32:09;;;;;;;7.07;4.10;;;-1.70;99.30;;;;;;5066920;28;20187;-57
2020/12/26 04:34:35;;;;;;;8.50;4.43;;;-1.60;99.30;;;;;;5064688;28;20600;-56
2020/12/26 04:37:00;;;;;;;7.03;4.80;;;-1.60;99.30;;;;;;5053582;28;20199;-57
2020/12/26 04:39:26;;;;;;;8.80;4.70;;;-1.60;99.20;;;;;;5072073;28;20202;-57
2020/12/26 04:41:51;;;;;;;6.13;4.73;;;-1.70;99.00;;;;;;5070438;28;20644;-58
2020/12/26 04:44:17;;;;;;;9.67;4.30;;;-1.70;99.20;;;;;;5051879;28;20209;-58
2020/12/26 04:46:46;;;;;;;9.13;5.20;;;-1.70;99.20;;;;;;5053555;28;20211;-57
2020/12/26 04:49:12;;;;;;;8.10;5.00;;;-1.70;99.10;;;;;;5072485;28;20443;-60
2020/12/26 04:51:40;;;;;;;8.90;4.90;;;-1.70;99.30;;;;;;5068651;28;20508;-57
2020/12/26 04:54:24;;;;;;;12.50;4.90;;;-1.70;99.20;;;;;;5069894;28;20179;-57
2020/12/26 04:56:56;;;;;;;7.63;5.10;;;-1.60;99.20;;;;;;5070373;28;20504;-58
2020/12/26 04:59:22;;;;;;;8.30;4.90;;;-1.60;99.30;;;;;;5053037;28;20438;-56
2020/12/26 05:01:49;;;;;;;7.00;5.00;;;-1.60;99.30;;;;;;5062020;28;20467;-57
2020/12/26 05:04:15;;;;;;;8.33;4.60;;;-1.60;99.30;;;;;;5045736;28;20470;-58
2020/12/26 05:06:46;;;;;;;7.10;4.80;;;-1.60;99.50;;;;;;5052277;28;21035;-58
2020/12/26 05:09:13;;;;;;;11.90;5.40;;;-1.50;99.30;;;;;;5061514;28;20223;-57
2020/12/26 05:11:39;;;;;;;8.70;4.53;;;-1.50;99.30;;;;;;5068159;28;20438;-57
2020/12/26 05:14:14;;;;;;;11.83;5.10;;;-1.50;99.40;;;;;;5064061;28;20491;-57
2020/12/26 05:16:40;;;;;;;6.57;4.57;;;-1.50;99.40;;;;;;5071082;28;20698;-58
2020/12/26 05:19:08;;;;;;;8.00;4.60;;;-1.40;99.60;;;;;;5048817;28;20439;-57
2020/12/26 05:21:34;;;;;;;8.63;4.83;;;-1.40;99.70;;;;;;5073943;28;20575;-57
2020/12/26 05:24:07;;;;;;;7.70;4.97;;;-1.40;99.70;;;;;;5069549;28;20465;-59
2020/12/26 05:26:41;;;;;;;8.13;4.30;;;-1.40;99.60;;;;;;5072016;28;20220;-58
2020/12/26 05:29:07;;;;;;;10.37;4.60;;;-1.50;99.70;;;;;;5088725;22;20569;-60
2020/12/26 05:31:58;;;;;;;5.60;3.93;;;-1.50;99.80;;;;;;5069900;28;20442;-61
2020/12/26 05:34:35;;;;;;;7.10;4.40;;;-1.50;99.90;;;;;;5065996;28;20553;-60
2020/12/26 05:37:01;;;;;;;8.23;5.13;;;-1.50;99.90;;;;;;5072651;28;20425;-60
2020/12/26 05:39:31;;;;;;;7.20;4.47;;;-1.50;99.90;;;;;;5072968;28;20994;-61
2020/12/26 05:41:57;;;;;;;10.47;5.20;;;-1.50;99.90;;;;;;5054913;28;20451;-63
2020/12/26 05:44:29;;;;;;;7.60;4.60;;;-1.50;99.90;;;;;;5062468;28;20963;-60
2020/12/26 05:46:57;;;;;;;8.83;5.20;;;-1.40;99.90;;;;;;5059229;28;20446;-61
2020/12/26 05:49:25;;;;;;;5.80;3.70;;;-1.50;99.90;;;;;;5053088;28;20496;-62
2020/12/26 05:51:52;;;;;;;7.90;5.03;;;-1.40;99.90;;;;;;5055453;28;20431;-60
2020/12/26 05:54:19;;;;;;;6.47;4.70;;;-1.50;99.90;;;;;;5059072;28;20466;-61
2020/12/26 05:56:44;;;;;;;7.23;4.37;;;-1.40;99.90;;;;;;5071649;28;20432;-60
2020/12/26 05:59:25;;;;;;;9.27;4.60;;;-1.40;99.90;;;;;;5071895;28;20838;-60
2020/12/26 06:01:51;;;;;;;14.07;5.50;;;-1.40;99.90;;;;;;5058747;28;20175;-63
2020/12/26 06:04:20;;;;;;;6.23;4.13;;;-1.40;99.90;;;;;;5067693;28;20475;-61
2020/12/26 06:06:52;;;;;;;10.93;5.40;;;-1.40;99.90;;;;;;5072258;28;20172;-62
2020/12/26 06:09:21;;;;;;;6.50;4.50;;;-1.40;99.90;;;;;;5056991;28;20825;-62
2020/12/26 06:11:52;;;;;;;8.70;5.10;;;-1.40;99.90;;;;;;5069415;28;20480;-61
2020/12/26 06:14:19;;;;;;;7.20;4.80;;;-1.40;99.90;;;;;;5066109;28;20427;-62
2020/12/26 06:16:49;;;;;;;13.80;5.80;;;-1.40;99.90;;;;;;5060589;28;20461;-64
2020/12/26 06:19:18;;;;;;;8.17;4.90;;;-1.30;99.90;;;;;;5064933;28;20446;-62
2020/12/26 06:21:46;;;;;;;7.67;4.00;;;-1.30;99.90;;;;;;5064422;28;20948;-63
2020/12/26 06:24:13;;;;;;;7.20;4.47;;;-1.30;99.90;;;;;;5060825;28;20465;-62
2020/12/26 06:26:45;;;;;;;8.93;4.93;;;-1.30;99.90;;;;;;5051108;28;21014;-63
2020/12/26 06:29:18;;;;;;;10.87;5.00;;;-1.40;99.90;;;;;;5054418;28;20477;-58
2020/12/26 06:31:45;;;;;;;11.30;5.63;;;-1.30;99.90;;;;;;5067318;28;20849;-62
2020/12/26 06:34:13;;;;;;;28.27;14.90;;;-1.30;99.90;;;;;;5070479;28;20471;-60
2020/12/26 06:36:40;;;;;;;29.27;13.73;;;-1.30;99.90;;;;;;5069046;28;20440;-60
2020/12/26 06:39:34;;;;;;;27.60;9.87;;;-1.30;99.90;;;;;;5053920;28;20449;-60
2020/12/26 06:42:09;;;;;;;12.10;7.40;;;-1.30;99.90;;;;;;5060575;28;20433;-61
2020/12/26 06:44:36;;;;;;;7.07;5.10;;;-1.40;99.90;;;;;;5055512;28;20525;-60
2020/12/26 06:47:02;;;;;;;8.77;5.13;;;-1.40;99.90;;;;;;5065706;28;20451;-57
2020/12/26 06:49:28;;;;;;;9.37;5.00;;;-1.40;99.90;;;;;;5070337;28;20452;-58
2020/12/26 06:51:54;;;;;;;8.73;5.20;;;-1.50;99.90;;;;;;5052261;28;20439;-60
2020/12/26 06:54:52;;;;;;;8.43;5.10;;;-1.40;99.90;;;;;;5073102;28;20192;-62
2020/12/26 06:57:44;;;;;;;11.47;5.73;;;-1.40;99.90;;;;;;5025425;28;20444;-59
2020/12/26 07:00:26;;;;;;;8.03;4.97;;;-1.50;99.60;;;;;;5055354;28;20448;-60
2020/12/26 07:03:17;;;;;;;10.17;5.37;;;-1.50;99.60;;;;;;5048952;28;20990;-59
2020/12/26 07:05:44;;;;;;;13.50;6.17;;;-1.60;99.70;;;;;;5060260;28;20466;-61
2020/12/26 07:08:30;;;;;;;8.97;4.93;;;-1.60;99.90;;;;;;5047868;28;20479;-60
2020/12/26 07:10:58;;;;;;;9.83;6.00;;;-1.70;99.90;;;;;;5068575;28;20438;-59
2020/12/26 07:13:42;;;;;;;13.33;7.33;;;-1.70;99.80;;;;;;5063916;28;20448;-58
2020/12/26 07:16:39;;;;;;;11.53;6.07;;;-1.70;99.90;;;;;;5062583;28;20803;-59
2020/12/26 07:19:23;;;;;;;10.30;6.57;;;-1.70;99.80;;;;;;5062093;28;20445;-59
2020/12/26 07:21:57;;;;;;;14.43;6.57;;;-1.70;99.70;;;;;;5065957;28;20441;-59
2020/12/26 07:24:38;;;;;;;11.00;6.03;;;-1.80;99.70;;;;;;5068380;28;20488;-59
2020/12/26 07:27:15;;;;;;;10.10;5.87;;;-1.80;99.80;;;;;;5064444;28;20455;-62
2020/12/26 07:29:57;;;;;;;11.03;6.07;;;-1.80;99.90;;;;;;5062758;28;20462;-61
2020/12/26 07:32:40;;;;;;;10.43;5.30;;;-1.90;99.80;;;;;;5060521;28;20626;-62
2020/12/26 07:35:16;;;;;;;10.63;6.10;;;-1.90;99.90;;;;;;5064743;28;20789;-61
2020/12/26 07:38:06;;;;;;;10.30;5.67;;;-1.90;99.90;;;;;;5062895;28;20545;-61
2020/12/26 07:40:44;;;;;;;11.60;6.00;;;-1.90;99.90;;;;;;5044606;28;20435;-61
2020/12/26 07:43:15;;;;;;;15.20;6.50;;;-1.90;99.90;;;;;;5065308;28;20460;-60
2020/12/26 07:45:43;;;;;;;15.90;7.90;;;-1.80;99.90;;;;;;5040936;28;20977;-60
2020/12/26 07:48:09;;;;;;;17.60;8.27;;;-1.90;99.90;;;;;;5060798;28;20454;-60
2020/12/26 07:50:37;;;;;;;14.83;7.40;;;-1.80;99.90;;;;;;5050871;28;20472;-59
2020/12/26 07:53:13;;;;;;;13.40;6.90;;;-1.80;99.90;;;;;;5064031;28;20432;-60
2020/12/26 07:55:38;;;;;;;8.57;5.17;;;-1.80;99.90;;;;;;5051111;28;20459;-60
2020/12/26 07:58:05;;;;;;;14.47;5.70;;;-1.70;99.90;;;;;;5059018;28;20496;-60
2020/12/26 08:00:34;;;;;;;11.30;6.63;;;-1.60;99.90;;;;;;5067649;28;20921;-60
2020/12/26 08:03:03;;;;;;;10.90;5.97;;;-1.60;99.90;;;;;;5056220;28;20464;-58
2020/12/26 08:05:31;;;;;;;8.27;5.70;;;-1.50;99.90;;;;;;5062009;28;20979;-60
2020/12/26 08:07:58;;;;;;;11.67;6.23;;;-1.40;99.90;;;;;;5044324;28;20444;-59
2020/12/26 08:10:24;;;;;;;12.00;7.07;;;-1.40;99.90;;;;;;5065950;28;20929;-62
2020/12/26 08:12:59;;;;;;;13.60;6.80;;;-1.30;99.90;;;;;;5062414;28;20437;-61
2020/12/26 08:15:31;;;;;;;12.93;6.60;;;-1.30;99.90;;;;;;5067308;28;20519;-60
2020/12/26 08:17:59;;;;;;;9.93;5.80;;;-1.20;99.90;;;;;;5063573;28;20995;-61
2020/12/26 08:20:28;;;;;;;8.80;5.30;;;-1.10;99.90;;;;;;5043995;28;20440;-60
2020/12/26 08:22:54;;;;;;;10.30;5.03;;;-1.10;99.90;;;;;;5051595;28;21202;-59
2020/12/26 08:25:22;;;;;;;8.47;5.50;;;-1.10;99.90;;;;;;5058796;28;20905;-58
2020/12/26 08:27:49;;;;;;;10.40;6.47;;;-1.00;99.80;;;;;;5067065;28;20556;-61
2020/12/26 08:30:35;;;;;;;10.70;6.50;;;-1.00;99.60;;;;;;5066722;28;20916;-62
2020/12/26 08:33:19;;;;;;;11.23;6.27;;;-1.00;99.60;;;;;;5069044;28;20433;-59
2020/12/26 08:36:01;;;;;;;9.53;5.47;;;-1.00;99.50;;;;;;5066469;28;20989;-60
2020/12/26 08:38:42;;;;;;;13.87;6.40;;;-0.90;99.70;;;;;;5069757;28;20441;-59
2020/12/26 08:41:10;;;;;;;10.80;6.90;;;-0.90;99.90;;;;;;5055112;28;20746;-60
2020/12/26 08:43:38;;;;;;;15.87;6.43;;;-0.80;99.90;;;;;;5065838;28;20452;-60
2020/12/26 08:46:17;;;;;;;12.13;6.87;;;-0.80;99.90;;;;;;5065212;28;20794;-60
2020/12/26 08:48:43;;;;;;;12.37;6.70;;;-0.70;99.90;;;;;;5072248;28;20457;-59
2020/12/26 08:51:22;;;;;;;11.63;6.67;;;-0.70;99.80;;;;;;5069152;28;20485;-59
2020/12/26 08:53:50;;;;;;;10.00;6.40;;;-0.60;99.80;;;;;;5069700;28;20449;-59
2020/12/26 08:56:16;;;;;;;11.40;6.97;;;-0.60;99.80;;;;;;5063419;28;20982;-57
2020/12/26 08:58:49;;;;;;;14.13;8.80;;;-0.50;99.80;;;;;;5071732;28;20514;-59
2020/12/26 09:01:15;;;;;;;16.97;8.90;;;-0.40;99.80;;;;;;5074128;28;20438;-61
2020/12/26 09:03:48;;;;;;;22.17;13.50;;;-0.30;99.70;;;;;;5072670;28;20466;-59
2020/12/26 09:06:14;;;;;;;19.43;9.73;;;-0.30;99.40;;;;;;5062634;28;20430;-60
2020/12/26 09:08:40;;;;;;;19.63;9.60;;;-0.20;98.90;;;;;;5061761;28;20521;-65
2020/12/26 09:11:11;;;;;;;16.30;10.20;;;-0.20;98.60;;;;;;5069230;28;20433;-64
2020/12/26 09:13:38;;;;;;;17.80;10.50;;;-0.10;98.50;;;;;;5073309;28;20200;-62
2020/12/26 09:16:13;;;;;;;14.33;8.60;;;-0.10;98.30;;;;;;5068006;28;20514;-64
2020/12/26 09:18:49;;;;;;;14.23;7.90;;;-0.10;98.30;;;;;;5070644;28;20454;-60
2020/12/26 09:21:26;;;;;;;9.83;5.80;;;0.00;98.00;;;;;;5063887;28;21303;-61
2020/12/26 09:23:55;;;;;;;8.90;5.90;;;0.00;97.70;;;;;;5060855;28;20459;-62
2020/12/26 09:26:25;;;;;;;15.23;6.80;;;0.10;97.20;;;;;;5063838;28;20430;-61
2020/12/26 09:28:58;;;;;;;11.50;5.90;;;0.10;96.90;;;;;;5058793;28;20466;-60
2020/12/26 09:31:34;;;;;;;8.57;5.43;;;0.10;96.60;;;;;;5060680;28;21027;-61
2020/12/26 09:34:12;;;;;;;8.70;5.50;;;0.10;96.20;;;;;;5042348;28;20430;-61
2020/12/26 09:36:38;;;;;;;15.43;5.03;;;0.10;96.10;;;;;;5056891;28;20432;-62
2020/12/26 09:39:05;;;;;;;7.67;4.23;;;0.20;95.70;;;;;;5024806;28;20458;-61
2020/12/26 09:41:50;;;;;;;13.90;4.53;;;0.20;95.10;;;;;;5046996;28;20357;-62
2020/12/26 09:44:16;;;;;;;8.70;4.57;;;0.20;95.30;;;;;;5063722;28;20574;-62
2020/12/26 09:46:42;;;;;;;6.73;3.93;;;0.30;94.80;;;;;;5062384;28;20495;-61
2020/12/26 09:49:09;;;;;;;7.83;4.50;;;0.30;94.80;;;;;;5060102;28;21242;-64
2020/12/26 09:51:35;;;;;;;5.93;4.33;;;0.30;95.10;;;;;;5048877;28;20518;-61
2020/12/26 09:54:01;;;;;;;8.37;5.00;;;0.40;95.00;;;;;;5067022;28;20931;-61
2020/12/26 09:56:27;;;;;;;5.93;4.13;;;0.40;94.30;;;;;;5045179;28;20894;-61
2020/12/26 09:58:53;;;;;;;6.67;3.63;;;0.40;94.00;;;;;;5067031;28;20450;-60
2020/12/26 10:01:21;;;;;;;7.10;4.40;;;0.40;93.80;;;;;;5061060;28;20203;-61
2020/12/26 10:03:48;;;;;;;11.63;4.40;;;0.40;93.90;;;;;;5064691;28;20478;-62
2020/12/26 10:06:16;;;;;;;11.70;4.40;;;0.40;93.40;;;;;;5064798;28;20948;-61
2020/12/26 10:08:43;;;;;;;8.87;4.30;;;0.40;92.60;;;;;;5059069;28;21052;-62
2020/12/26 10:11:10;;;;;;;11.07;5.30;;;0.30;93.00;;;;;;5062960;28;20446;-61
2020/12/26 10:13:36;;;;;;;7.40;4.30;;;0.30;93.60;;;;;;5059502;28;20436;-62
2020/12/26 10:16:02;;;;;;;5.80;4.30;;;0.40;93.20;;;;;;5045028;28;20430;-60
2020/12/26 10:18:28;;;;;;;5.47;4.50;;;0.40;93.00;;;;;;5045776;28;20465;-58
2020/12/26 10:20:53;;;;;;;7.60;4.50;;;0.40;92.90;;;;;;5065009;28;20207;-61
2020/12/26 10:23:19;;;;;;;7.43;4.77;;;0.40;93.40;;;;;;5064479;28;20204;-62
2020/12/26 10:25:44;;;;;;;8.43;4.30;;;0.40;93.50;;;;;;5063968;28;20186;-63
2020/12/26 10:28:10;;;;;;;8.20;4.50;;;0.40;93.50;;;;;;5040365;28;20227;-63
2020/12/26 10:30:36;;;;;;;6.50;4.23;;;0.40;93.80;;;;;;5058257;28;20192;-61
2020/12/26 10:33:02;;;;;;;5.70;3.93;;;0.40;93.90;;;;;;5057247;28;20197;-61
2020/12/26 10:35:28;;;;;;;8.17;4.70;;;0.40;93.90;;;;;;5061007;28;20221;-61
2020/12/26 10:37:53;;;;;;;10.47;4.70;;;0.40;93.60;;;;;;5048676;28;20506;-61
2020/12/26 10:40:19;;;;;;;11.73;5.93;;;0.40;93.80;;;;;;5069804;28;20180;-63
2020/12/26 10:42:45;;;;;;;9.93;4.60;;;0.50;93.80;;;;;;5066507;28;20673;-63
2020/12/26 10:45:10;;;;;;;6.63;4.83;;;0.50;94.00;;;;;;5073434;28;20188;-61
2020/12/26 10:47:36;;;;;;;6.90;4.27;;;0.60;93.90;;;;;;5065699;28;20195;-62
2020/12/26 10:50:02;;;;;;;6.70;4.47;;;0.70;93.90;;;;;;5070260;28;20720;-60
2020/12/26 10:52:29;;;;;;;10.93;4.83;;;0.70;93.80;;;;;;5072445;28;20183;-61
2020/12/26 10:54:55;;;;;;;7.43;4.83;;;0.80;93.90;;;;;;5068972;28;20568;-61
2020/12/26 10:57:20;;;;;;;7.30;4.67;;;0.90;93.30;;;;;;5064575;28;20891;-61
2020/12/26 10:59:46;;;;;;;8.03;4.33;;;0.90;92.70;;;;;;5063405;28;20203;-61
2020/12/26 11:02:12;;;;;;;7.33;4.50;;;1.00;92.40;;;;;;5074789;28;20183;-62
2020/12/26 11:04:37;;;;;;;12.13;4.43;;;1.10;92.60;;;;;;5053959;28;20225;-64
2020/12/26 11:07:04;;;;;;;5.50;3.60;;;1.10;91.50;;;;;;5049179;28;20180;-61
2020/12/26 11:09:30;;;;;;;7.50;4.33;;;1.20;91.90;;;;;;5067404;28;20196;-62
2020/12/26 11:11:55;;;;;;;15.00;4.00;;;1.30;91.80;;;;;;5067758;28;20468;-65
2020/12/26 11:14:21;;;;;;;9.70;4.50;;;1.30;90.60;;;;;;5072249;28;20190;-61
2020/12/26 11:16:51;;;;;;;7.10;4.53;;;1.40;90.70;;;;;;5064390;28;20195;-61
2020/12/26 11:19:17;;;;;;;10.30;4.80;;;1.50;91.00;;;;;;5078167;28;20203;-62
2020/12/26 11:21:44;;;;;;;3.87;3.27;;;1.60;90.80;;;;;;5070735;28;20429;-60
2020/12/26 11:24:11;;;;;;;5.80;4.00;;;1.60;90.70;;;;;;5056190;28;20467;-61
2020/12/26 11:26:37;;;;;;;10.07;3.70;;;1.70;91.00;;;;;;5063313;28;20586;-60
2020/12/26 11:29:03;;;;;;;8.90;4.70;;;1.70;90.10;;;;;;5059746;22;20911;-53
2020/12/26 11:31:29;;;;;;;7.00;3.83;;;1.70;87.20;;;;;;5051156;28;20429;-54
2020/12/26 11:33:55;;;;;;;7.07;4.30;;;1.70;87.60;;;;;;5047870;28;20451;-55
2020/12/26 11:36:24;;;;;;;6.87;3.70;;;1.60;87.70;;;;;;5049555;28;20193;-55
2020/12/26 11:38:50;;;;;;;6.17;3.80;;;1.60;87.00;;;;;;5031264;28;20255;-55
2020/12/26 11:41:21;;;;;;;4.60;3.40;;;1.60;87.80;;;;;;5049153;28;20438;-56
2020/12/26 11:43:47;;;;;;;5.33;3.73;;;1.60;87.30;;;;;;5003925;28;20823;-55
2020/12/26 11:46:13;;;;;;;8.83;4.23;;;1.50;84.20;;;;;;5047611;28;20434;-55
2020/12/26 11:48:39;;;;;;;8.20;4.37;;;1.50;85.10;;;;;;5048246;28;20232;-55
2020/12/26 11:51:05;;;;;;;12.33;4.63;;;1.40;83.80;;;;;;5033625;28;20423;-57
2020/12/26 11:53:31;;;;;;;12.37;3.90;;;1.40;84.90;;;;;;5026995;28;20195;-56
2020/12/26 11:55:57;;;;;;;5.23;3.60;;;1.30;83.00;;;;;;5015382;28;20498;-55
2020/12/26 11:58:26;;;;;;;4.30;3.50;;;1.20;84.20;;;;;;5048630;28;20239;-56
2020/12/26 12:00:54;;;;;;;10.93;4.30;;;1.30;87.50;;;;;;5046264;28;20928;-56
2020/12/26 12:03:20;;;;;;;7.90;4.23;;;1.40;86.90;;;;;;5010402;28;20798;-54
2020/12/26 12:05:46;;;;;;;7.27;3.50;;;1.40;85.90;;;;;;5044674;28;20435;-54
2020/12/26 12:08:12;;;;;;;5.37;3.80;;;1.50;86.00;;;;;;5038533;28;20430;-54
2020/12/26 12:10:39;;;;;;;6.80;3.20;;;1.60;83.30;;;;;;5028478;28;20446;-53
2020/12/26 12:13:05;;;;;;;4.90;3.70;;;1.70;83.00;;;;;;5038511;28;20530;-54
2020/12/26 12:15:31;;;;;;;5.47;3.53;;;1.70;81.40;;;;;;5045908;28;20431;-54
2020/12/26 12:17:59;;;;;;;7.80;4.03;;;1.70;79.10;;;;;;5030442;28;20625;-55
2020/12/26 12:20:27;;;;;;;7.93;3.80;;;1.70;79.50;;;;;;5048218;28;20438;-55
2020/12/26 12:22:53;;;;;;;5.90;3.30;;;1.70;78.10;;;;;;5012593;28;20418;-54
2020/12/26 12:25:18;;;;;;;7.40;3.80;;;1.70;79.40;;;;;;5029578;28;20419;-53
2020/12/26 12:27:44;;;;;;;6.60;3.20;;;1.80;80.30;;;;;;5004456;28;20217;-54
2020/12/26 12:30:09;;;;;;;3.93;2.90;;;1.80;76.70;;;;;;5037818;28;20197;-53
2020/12/26 12:32:35;;;;;;;10.50;3.30;;;1.80;71.80;;;;;;5046701;28;20195;-54
2020/12/26 12:35:01;;;;;;;5.87;3.00;;;1.80;74.60;;;;;;5027423;28;20648;-54
2020/12/26 12:37:26;;;;;;;4.20;2.90;;;1.80;73.30;;;;;;5048341;28;20595;-52
2020/12/26 12:39:52;;;;;;;3.47;2.87;;;1.80;71.30;;;;;;5048955;28;20181;-52
2020/12/26 12:42:17;;;;;;;2.03;1.93;;;1.80;71.10;;;;;;5048158;28;20177;-55
2020/12/26 12:44:43;;;;;;;12.60;4.53;;;1.80;68.10;;;;;;5028200;28;20208;-55
2020/12/26 12:47:09;;;;;;;4.77;2.70;;;1.80;66.80;;;;;;5047025;28;20185;-54
2020/12/26 12:49:34;;;;;;;3.53;1.87;;;1.70;67.30;;;;;;5047490;28;20224;-54
2020/12/26 12:52:04;;;;;;;7.57;2.90;;;1.70;59.30;;;;;;5027503;28;20238;-53
2020/12/26 12:54:30;;;;;;;4.20;2.37;;;1.60;57.70;;;;;;5013477;28;20201;-53